sensor_id;sensor_type;location;lat;lon;timestamp;temperature;humidity
19552;DHT22;9921;47.186;9.778;2023-12-28T00:01:44;0.30;99.90
19552;DHT22;9921;47.186;9.778;2023-12-28T00:04:10;0.20;99.90
19552;DHT22;9921;47.186;9.778;2023-12-28T00:06:39;0.30;99.90
19552;DHT22;9921;47.186;9.778;2023-12-28T00:09:05;0.20;99.90
19552;DHT22;9921;47.186;9.778;2023-12-28T00:11:32;0.20;99.90
19552;DHT22;9921;47.186;9.778;2023-12-28T00:14:00;0.20;99.90
19552;DHT22;9921;47.186;9.778;2023-12-28T00:16:27;0.10;99.90
19552;DHT22;9921;47.186;9.778;2023-12-28T00:18:54;0.10;99.90
19552;DHT22;9921;47.186;9.778;2023-12-28T00:21:21;0.20;99.90
19552;DHT22;9921;47.186;9.778;2023-12-28T00:23:49;0.10;99.90
19552;DHT22;9921;47.186;9.778;2023-12-28T00:26:16;0.10;99.90
19552;DHT22;9921;47.186;9.778;2023-12-28T00:28:46;0.10;99.90
19552;DHT22;9921;47.186;9.778;2023-12-28T00:31:13;0.10;99.90
19552;DHT22;9921;47.186;9.778;2023-12-28T00:33:40;0.00;99.90
19552;DHT22;9921;47.186;9.778;2023-12-28T00:36:08;0.00;99.90
19552;DHT22;9921;47.186;9.778;2023-12-28T00:38:34;0.00;99.90
19552;DHT22;9921;47.186;9.778;2023-12-28T00:41:03;0.00;99.90
19552;DHT22;9921;47.186;9.778;2023-12-28T00:43:30;-0.10;99.90
19552;DHT22;9921;47.186;9.778;2023-12-28T00:45:56;0.00;99.90
19552;DHT22;9921;47.186;9.778;2023-12-28T00:48:23;0.00;99.90
19552;DHT22;9921;47.186;9.778;2023-12-28T00:50:50;-0.10;99.90
19552;DHT22;9921;47.186;9.778;2023-12-28T00:53:17;-0.10;99.90
19552;DHT22;9921;47.186;9.778;2023-12-28T00:55:45;-0.10;99.90
19552;DHT22;9921;47.186;9.778;2023-12-28T00:58:13;-0.10;99.90
19552;DHT22;9921;47.186;9.778;2023-12-28T01:00:40;0.00;99.90
19552;DHT22;9921;47.186;9.778;2023-12-28T01:03:07;0.00;99.90
19552;DHT22;9921;47.186;9.778;2023-12-28T01:05:34;0.00;99.90
19552;DHT22;9921;47.186;9.778;2023-12-28T01:08:03;0.00;99.90
19552;DHT22;9921;47.186;9.778;2023-12-28T01:10:30;0.00;99.90
19552;DHT22;9921;47.186;9.778;2023-12-28T01:12:57;0.00;99.90
19552;DHT22;9921;47.186;9.778;2023-12-28T01:15:25;-0.10;99.90
19552;DHT22;9921;47.186;9.778;2023-12-28T01:17:52;-0.10;99.90
19552;DHT22;9921;47.186;9.778;2023-12-28T01:20:19;-0.10;99.90
19552;DHT22;9921;47.186;9.778;2023-12-28T01:22:46;-0.10;99.90
19552;DHT22;9921;47.186;9.778;2023-12-28T01:25:15;-0.10;99.90
19552;DHT22;9921;47.186;9.778;2023-12-28T01:27:42;-0.10;99.90
19552;DHT22;9921;47.186;9.778;2023-12-28T01:30:09;-0.10;99.90
19552;DHT22;9921;47.186;9.778;2023-12-28T01:32:37;-0.20;99.90
19552;DHT22;9921;47.186;9.778;2023-12-28T01:35:05;-0.20;99.90
19552;DHT22;9921;47.186;9.778;2023-12-28T01:37:32;-0.20;99.90
19552;DHT22;9921;47.186;9.778;2023-12-28T01:39:59;-0.20;99.90
19552;DHT22;9921;47.186;9.778;2023-12-28T01:42:26;-0.20;99.90
19552;DHT22;9921;47.186;9.778;2023-12-28T01:44:55;-0.20;99.90
19552;DHT22;9921;47.186;9.778;2023-12-28T01:47:22;-0.10;99.90
19552;DHT22;9921;47.186;9.778;2023-12-28T01:49:51;-0.10;99.90
19552;DHT22;9921;47.186;9.778;2023-12-28T01:52:19;-0.10;99.90
19552;DHT22;9921;47.186;9.778;2023-12-28T01:54:47;-0.10;99.90
19552;DHT22;9921;47.186;9.778;2023-12-28T01:57:14;0.00;99.90
19552;DHT22;9921;47.186;9.778;2023-12-28T01:59:42;0.00;99.90
19552;DHT22;9921;47.186;9.778;2023-12-28T02:02:09;0.00;99.90
19552;DHT22;9921;47.186;9.778;2023-12-28T02:04:40;-0.10;99.90
19552;DHT22;9921;47.186;9.778;2023-12-28T02:07:08;0.00;99.90
19552;DHT22;9921;47.186;9.778;2023-12-28T02:09:35;0.00;99.90
19552;DHT22;9921;47.186;9.778;2023-12-28T02:12:03;-0.10;99.90
19552;DHT22;9921;47.186;9.778;2023-12-28T02:14:30;-0.10;99.90
19552;DHT22;9921;47.186;9.778;2023-12-28T02:17:02;-0.10;99.90
19552;DHT22;9921;47.186;9.778;2023-12-28T02:19:40;-0.20;99.90
19552;DHT22;9921;47.186;9.778;2023-12-28T02:22:13;-0.10;99.90
19552;DHT22;9921;47.186;9.778;2023-12-28T02:25:07;0.00;99.90
19552;DHT22;9921;47.186;9.778;2023-12-28T02:27:35;0.00;99.90
19552;DHT22;9921;47.186;9.778;2023-12-28T02:30:04;0.00;99.90
19552;DHT22;9921;47.186;9.778;2023-12-28T02:33:01;0.00;99.90
19552;DHT22;9921;47.186;9.778;2023-12-28T02:35:33;0.00;99.90
19552;DHT22;9921;47.186;9.778;2023-12-28T02:38:04;0.00;99.90
19552;DHT22;9921;47.186;9.778;2023-12-28T02:40:36;0.00;99.90
19552;DHT22;9921;47.186;9.778;2023-12-28T02:43:04;0.10;99.90
19552;DHT22;9921;47.186;9.778;2023-12-28T02:45:31;0.00;99.90
19552;DHT22;9921;47.186;9.778;2023-12-28T02:47:59;0.00;99.90
19552;DHT22;9921;47.186;9.778;2023-12-28T02:50:25;0.00;99.90
19552;DHT22;9921;47.186;9.778;2023-12-28T02:52:52;0.00;99.90
19552;DHT22;9921;47.186;9.778;2023-12-28T02:55:19;0.00;99.90
19552;DHT22;9921;47.186;9.778;2023-12-28T02:57:48;0.10;99.90
19552;DHT22;9921;47.186;9.778;2023-12-28T03:00:16;0.00;99.90
19552;DHT22;9921;47.186;9.778;2023-12-28T03:02:43;0.00;99.90
19552;DHT22;9921;47.186;9.778;2023-12-28T03:05:10;0.00;99.90
19552;DHT22;9921;47.186;9.778;2023-12-28T03:07:36;0.00;99.90
19552;DHT22;9921;47.186;9.778;2023-12-28T03:10:05;-0.10;99.90
19552;DHT22;9921;47.186;9.778;2023-12-28T03:12:32;0.00;99.90
19552;DHT22;9921;47.186;9.778;2023-12-28T03:15:00;-0.10;99.90
19552;DHT22;9921;47.186;9.778;2023-12-28T03:17:27;-0.10;99.90
19552;DHT22;9921;47.186;9.778;2023-12-28T03:19:54;-0.10;99.90
19552;DHT22;9921;47.186;9.778;2023-12-28T03:22:21;-0.20;99.90
19552;DHT22;9921;47.186;9.778;2023-12-28T03:24:48;-0.20;99.90
19552;DHT22;9921;47.186;9.778;2023-12-28T03:27:15;-0.20;99.90
19552;DHT22;9921;47.186;9.778;2023-12-28T03:29:42;-0.30;99.90
19552;DHT22;9921;47.186;9.778;2023-12-28T03:32:11;-0.30;99.90
19552;DHT22;9921;47.186;9.778;2023-12-28T03:34:37;-0.40;99.90
19552;DHT22;9921;47.186;9.778;2023-12-28T03:37:04;-0.40;99.90
19552;DHT22;9921;47.186;9.778;2023-12-28T03:39:31;-0.40;99.90
19552;DHT22;9921;47.186;9.778;2023-12-28T03:41:58;-0.40;99.90
19552;DHT22;9921;47.186;9.778;2023-12-28T03:44:25;-0.50;99.90
19552;DHT22;9921;47.186;9.778;2023-12-28T03:46:52;-0.40;99.90
19552;DHT22;9921;47.186;9.778;2023-12-28T03:49:21;-0.50;99.90
19552;DHT22;9921;47.186;9.778;2023-12-28T03:51:49;-0.50;99.90
19552;DHT22;9921;47.186;9.778;2023-12-28T03:54:17;-0.50;99.90
19552;DHT22;9921;47.186;9.778;2023-12-28T03:56:45;-0.50;99.90
19552;DHT22;9921;47.186;9.778;2023-12-28T03:59:12;-0.50;99.90
19552;DHT22;9921;47.186;9.778;2023-12-28T04:01:40;-0.50;99.90
19552;DHT22;9921;47.186;9.778;2023-12-28T04:04:07;-0.50;99.90
19552;DHT22;9921;47.186;9.778;2023-12-28T04:06:36;-0.40;99.90
19552;DHT22;9921;47.186;9.778;2023-12-28T04:09:03;-0.40;99.90
19552;DHT22;9921;47.186;9.778;2023-12-28T04:11:30;-0.40;99.90
19552;DHT22;9921;47.186;9.778;2023-12-28T04:13:57;-0.40;99.90
19552;DHT22;9921;47.186;9.778;2023-12-28T04:16:24;-0.40;99.90
19552;DHT22;9921;47.186;9.778;2023-12-28T04:18:51;-0.40;99.90
19552;DHT22;9921;47.186;9.778;2023-12-28T04:21:17;-0.40;99.90
19552;DHT22;9921;47.186;9.778;2023-12-28T04:23:46;-0.40;99.90
19552;DHT22;9921;47.186;9.778;2023-12-28T04:26:13;-0.40;99.90
19552;DHT22;9921;47.186;9.778;2023-12-28T04:28:40;-0.40;99.90
19552;DHT22;9921;47.186;9.778;2023-12-28T04:31:07;-0.40;99.90
19552;DHT22;9921;47.186;9.778;2023-12-28T04:33:34;-0.40;99.90
19552;DHT22;9921;47.186;9.778;2023-12-28T04:36:01;-0.40;99.90
19552;DHT22;9921;47.186;9.778;2023-12-28T04:38:30;-0.40;99.90
19552;DHT22;9921;47.186;9.778;2023-12-28T04:40:59;-0.30;99.90
19552;DHT22;9921;47.186;9.778;2023-12-28T04:43:26;-0.30;99.90
19552;DHT22;9921;47.186;9.778;2023-12-28T04:45:53;-0.40;99.90
19552;DHT22;9921;47.186;9.778;2023-12-28T04:48:20;-0.50;99.90
19552;DHT22;9921;47.186;9.778;2023-12-28T04:50:49;-0.50;99.90
19552;DHT22;9921;47.186;9.778;2023-12-28T04:53:18;-0.50;99.90
19552;DHT22;9921;47.186;9.778;2023-12-28T04:55:45;-0.40;99.90
19552;DHT22;9921;47.186;9.778;2023-12-28T04:58:13;-0.40;99.90
19552;DHT22;9921;47.186;9.778;2023-12-28T05:00:40;-0.50;99.90
19552;DHT22;9921;47.186;9.778;2023-12-28T05:03:06;-0.50;99.90
19552;DHT22;9921;47.186;9.778;2023-12-28T05:05:33;-0.40;99.90
19552;DHT22;9921;47.186;9.778;2023-12-28T05:08:00;-0.40;99.90
19552;DHT22;9921;47.186;9.778;2023-12-28T05:10:27;-0.40;99.90
19552;DHT22;9921;47.186;9.778;2023-12-28T05:12:54;-0.40;99.90
19552;DHT22;9921;47.186;9.778;2023-12-28T05:15:22;-0.40;99.90
19552;DHT22;9921;47.186;9.778;2023-12-28T05:17:49;-0.40;99.90
19552;DHT22;9921;47.186;9.778;2023-12-28T05:20:16;-0.40;99.90
19552;DHT22;9921;47.186;9.778;2023-12-28T05:22:43;-0.30;99.90
19552;DHT22;9921;47.186;9.778;2023-12-28T05:25:10;-0.30;99.90
19552;DHT22;9921;47.186;9.778;2023-12-28T05:27:37;-0.30;99.90
19552;DHT22;9921;47.186;9.778;2023-12-28T05:30:06;-0.20;99.90
19552;DHT22;9921;47.186;9.778;2023-12-28T05:32:35;-0.30;99.90
19552;DHT22;9921;47.186;9.778;2023-12-28T05:35:01;-0.20;99.90
19552;DHT22;9921;47.186;9.778;2023-12-28T05:37:28;-0.30;99.90
19552;DHT22;9921;47.186;9.778;2023-12-28T05:39:55;-0.20;99.90
19552;DHT22;9921;47.186;9.778;2023-12-28T05:42:23;-0.20;99.90
19552;DHT22;9921;47.186;9.778;2023-12-28T05:44:49;-0.20;99.90
19552;DHT22;9921;47.186;9.778;2023-12-28T05:47:16;-0.10;99.90
19552;DHT22;9921;47.186;9.778;2023-12-28T05:49:45;0.00;99.90
19552;DHT22;9921;47.186;9.778;2023-12-28T05:52:11;0.00;99.90
19552;DHT22;9921;47.186;9.778;2023-12-28T05:54:40;0.10;99.90
19552;DHT22;9921;47.186;9.778;2023-12-28T05:57:08;0.20;99.90
19552;DHT22;9921;47.186;9.778;2023-12-28T05:59:37;0.20;99.90
19552;DHT22;9921;47.186;9.778;2023-12-28T06:02:04;0.20;99.90
19552;DHT22;9921;47.186;9.778;2023-12-28T06:04:31;0.30;99.90
19552;DHT22;9921;47.186;9.778;2023-12-28T06:07:00;0.30;99.90
19552;DHT22;9921;47.186;9.778;2023-12-28T06:09:28;0.40;99.90
19552;DHT22;9921;47.186;9.778;2023-12-28T06:11:54;0.50;99.90
19552;DHT22;9921;47.186;9.778;2023-12-28T06:14:21;0.50;99.90
19552;DHT22;9921;47.186;9.778;2023-12-28T06:16:48;0.50;99.90
19552;DHT22;9921;47.186;9.778;2023-12-28T06:19:15;0.60;99.90
19552;DHT22;9921;47.186;9.778;2023-12-28T06:21:42;0.60;99.90
19552;DHT22;9921;47.186;9.778;2023-12-28T06:24:10;0.60;99.90
19552;DHT22;9921;47.186;9.778;2023-12-28T06:26:39;0.60;99.90
19552;DHT22;9921;47.186;9.778;2023-12-28T06:29:07;0.60;99.90
19552;DHT22;9921;47.186;9.778;2023-12-28T06:31:34;0.50;99.90
19552;DHT22;9921;47.186;9.778;2023-12-28T06:34:02;0.50;99.90
19552;DHT22;9921;47.186;9.778;2023-12-28T06:36:29;0.50;99.90
19552;DHT22;9921;47.186;9.778;2023-12-28T06:38:56;0.50;99.90
19552;DHT22;9921;47.186;9.778;2023-12-28T06:41:25;0.50;99.90
19552;DHT22;9921;47.186;9.778;2023-12-28T06:43:52;0.60;99.90
19552;DHT22;9921;47.186;9.778;2023-12-28T06:46:19;0.50;99.90
19552;DHT22;9921;47.186;9.778;2023-12-28T06:48:46;0.50;99.90
19552;DHT22;9921;47.186;9.778;2023-12-28T06:51:16;0.50;99.90
19552;DHT22;9921;47.186;9.778;2023-12-28T06:53:43;0.50;99.90
19552;DHT22;9921;47.186;9.778;2023-12-28T06:56:10;0.50;99.90
19552;DHT22;9921;47.186;9.778;2023-12-28T06:58:39;0.50;99.90
19552;DHT22;9921;47.186;9.778;2023-12-28T07:01:06;0.50;99.90
19552;DHT22;9921;47.186;9.778;2023-12-28T07:03:35;0.50;99.90
19552;DHT22;9921;47.186;9.778;2023-12-28T07:06:02;0.50;99.90
19552;DHT22;9921;47.186;9.778;2023-12-28T07:08:30;0.50;99.90
19552;DHT22;9921;47.186;9.778;2023-12-28T07:10:57;0.50;99.90
19552;DHT22;9921;47.186;9.778;2023-12-28T07:13:23;0.50;99.90
19552;DHT22;9921;47.186;9.778;2023-12-28T07:15:52;0.50;99.90
19552;DHT22;9921;47.186;9.778;2023-12-28T07:18:20;0.50;99.90
19552;DHT22;9921;47.186;9.778;2023-12-28T07:20:46;0.50;99.90
19552;DHT22;9921;47.186;9.778;2023-12-28T07:23:14;0.50;99.90
19552;DHT22;9921;47.186;9.778;2023-12-28T07:25:41;0.50;99.90
19552;DHT22;9921;47.186;9.778;2023-12-28T07:28:08;0.50;99.90
19552;DHT22;9921;47.186;9.778;2023-12-28T07:30:35;0.40;99.90
19552;DHT22;9921;47.186;9.778;2023-12-28T07:33:04;0.40;99.90
19552;DHT22;9921;47.186;9.778;2023-12-28T07:35:31;0.50;99.90
19552;DHT22;9921;47.186;9.778;2023-12-28T07:37:57;0.50;99.90
19552;DHT22;9921;47.186;9.778;2023-12-28T07:40:24;0.60;99.90
19552;DHT22;9921;47.186;9.778;2023-12-28T07:42:51;0.60;99.90
19552;DHT22;9921;47.186;9.778;2023-12-28T07:45:18;0.60;99.90
19552;DHT22;9921;47.186;9.778;2023-12-28T07:47:49;0.70;99.90
19552;DHT22;9921;47.186;9.778;2023-12-28T07:50:17;0.80;99.90
19552;DHT22;9921;47.186;9.778;2023-12-28T07:52:45;0.80;99.90
19552;DHT22;9921;47.186;9.778;2023-12-28T07:55:12;0.90;99.90
19552;DHT22;9921;47.186;9.778;2023-12-28T07:57:39;1.00;99.90
19552;DHT22;9921;47.186;9.778;2023-12-28T08:00:07;1.10;99.90
19552;DHT22;9921;47.186;9.778;2023-12-28T08:02:34;1.20;99.90
19552;DHT22;9921;47.186;9.778;2023-12-28T08:05:01;1.20;99.90
19552;DHT22;9921;47.186;9.778;2023-12-28T08:07:30;1.30;99.90
19552;DHT22;9921;47.186;9.778;2023-12-28T08:09:57;1.40;99.90
19552;DHT22;9921;47.186;9.778;2023-12-28T08:12:24;1.40;99.90
19552;DHT22;9921;47.186;9.778;2023-12-28T08:14:52;1.40;99.90
19552;DHT22;9921;47.186;9.778;2023-12-28T08:17:19;1.40;99.90
19552;DHT22;9921;47.186;9.778;2023-12-28T08:19:46;1.50;99.90
19552;DHT22;9921;47.186;9.778;2023-12-28T08:22:13;1.60;99.90
19552;DHT22;9921;47.186;9.778;2023-12-28T08:24:41;1.70;99.90
19552;DHT22;9921;47.186;9.778;2023-12-28T08:27:08;1.80;99.90
19552;DHT22;9921;47.186;9.778;2023-12-28T08:29:35;1.90;99.90
19552;DHT22;9921;47.186;9.778;2023-12-28T08:32:02;2.00;99.90
19552;DHT22;9921;47.186;9.778;2023-12-28T08:34:29;2.10;99.90
19552;DHT22;9921;47.186;9.778;2023-12-28T08:36:55;2.00;99.90
19552;DHT22;9921;47.186;9.778;2023-12-28T08:39:22;2.10;99.90
19552;DHT22;9921;47.186;9.778;2023-12-28T08:41:50;2.10;99.90
19552;DHT22;9921;47.186;9.778;2023-12-28T08:44:17;2.20;99.90
19552;DHT22;9921;47.186;9.778;2023-12-28T08:46:44;2.30;99.90
19552;DHT22;9921;47.186;9.778;2023-12-28T08:49:11;2.40;99.90
19552;DHT22;9921;47.186;9.778;2023-12-28T08:51:38;2.50;99.90
19552;DHT22;9921;47.186;9.778;2023-12-28T08:54:05;2.50;99.90
19552;DHT22;9921;47.186;9.778;2023-12-28T08:56:31;2.60;99.90
19552;DHT22;9921;47.186;9.778;2023-12-28T08:59:00;2.60;99.90
19552;DHT22;9921;47.186;9.778;2023-12-28T09:01:26;2.60;99.90
19552;DHT22;9921;47.186;9.778;2023-12-28T09:03:55;2.70;99.90
19552;DHT22;9921;47.186;9.778;2023-12-28T09:06:22;2.80;99.90
19552;DHT22;9921;47.186;9.778;2023-12-28T09:08:50;2.90;99.90
19552;DHT22;9921;47.186;9.778;2023-12-28T09:11:17;3.00;99.90
19552;DHT22;9921;47.186;9.778;2023-12-28T09:13:46;3.00;99.90
19552;DHT22;9921;47.186;9.778;2023-12-28T09:16:15;3.10;99.90
19552;DHT22;9921;47.186;9.778;2023-12-28T09:18:42;3.20;99.90
19552;DHT22;9921;47.186;9.778;2023-12-28T09:21:09;3.30;99.90
19552;DHT22;9921;47.186;9.778;2023-12-28T09:23:36;3.50;99.90
19552;DHT22;9921;47.186;9.778;2023-12-28T09:26:04;3.70;99.90
19552;DHT22;9921;47.186;9.778;2023-12-28T09:28:32;3.70;99.90
19552;DHT22;9921;47.186;9.778;2023-12-28T09:30:59;3.90;99.90
19552;DHT22;9921;47.186;9.778;2023-12-28T09:33:27;4.00;99.90
19552;DHT22;9921;47.186;9.778;2023-12-28T09:35:54;4.10;99.90
19552;DHT22;9921;47.186;9.778;2023-12-28T09:38:24;4.20;99.90
19552;DHT22;9921;47.186;9.778;2023-12-28T09:40:53;4.30;99.90
19552;DHT22;9921;47.186;9.778;2023-12-28T09:43:22;4.50;99.90
19552;DHT22;9921;47.186;9.778;2023-12-28T09:45:50;4.70;99.90
19552;DHT22;9921;47.186;9.778;2023-12-28T09:48:16;4.80;99.90
19552;DHT22;9921;47.186;9.778;2023-12-28T09:50:45;4.90;99.90
19552;DHT22;9921;47.186;9.778;2023-12-28T09:53:15;5.00;99.90
19552;DHT22;9921;47.186;9.778;2023-12-28T09:55:42;5.20;99.90
19552;DHT22;9921;47.186;9.778;2023-12-28T09:58:10;5.50;99.90
19552;DHT22;9921;47.186;9.778;2023-12-28T10:00:39;5.70;99.90
19552;DHT22;9921;47.186;9.778;2023-12-28T10:03:06;5.80;99.90
19552;DHT22;9921;47.186;9.778;2023-12-28T10:05:33;5.90;99.90
19552;DHT22;9921;47.186;9.778;2023-12-28T10:08:01;6.20;99.90
19552;DHT22;9921;47.186;9.778;2023-12-28T10:10:29;6.30;99.90
19552;DHT22;9921;47.186;9.778;2023-12-28T10:12:56;6.40;99.90
19552;DHT22;9921;47.186;9.778;2023-12-28T10:15:22;6.50;99.90
19552;DHT22;9921;47.186;9.778;2023-12-28T10:17:51;6.60;99.90
19552;DHT22;9921;47.186;9.778;2023-12-28T10:20:18;6.60;99.90
19552;DHT22;9921;47.186;9.778;2023-12-28T10:22:45;6.70;99.90
19552;DHT22;9921;47.186;9.778;2023-12-28T10:25:13;6.80;99.90
19552;DHT22;9921;47.186;9.778;2023-12-28T10:27:40;6.90;99.90
19552;DHT22;9921;47.186;9.778;2023-12-28T10:30:08;6.90;99.90
19552;DHT22;9921;47.186;9.778;2023-12-28T10:32:35;7.00;99.90
19552;DHT22;9921;47.186;9.778;2023-12-28T10:35:02;6.90;99.90
19552;DHT22;9921;47.186;9.778;2023-12-28T10:37:31;7.10;99.90
19552;DHT22;9921;47.186;9.778;2023-12-28T10:39:59;7.10;99.90
19552;DHT22;9921;47.186;9.778;2023-12-28T10:42:31;7.20;99.90
19552;DHT22;9921;47.186;9.778;2023-12-28T10:45:02;7.30;99.90
19552;DHT22;9921;47.186;9.778;2023-12-28T10:47:32;7.40;99.90
19552;DHT22;9921;47.186;9.778;2023-12-28T10:50:03;7.40;99.90
19552;DHT22;9921;47.186;9.778;2023-12-28T10:52:31;7.50;99.90
19552;DHT22;9921;47.186;9.778;2023-12-28T10:55:17;7.60;99.90
19552;DHT22;9921;47.186;9.778;2023-12-28T10:57:55;7.60;99.90
19552;DHT22;9921;47.186;9.778;2023-12-28T11:00:27;7.70;99.90
19552;DHT22;9921;47.186;9.778;2023-12-28T11:03:01;7.70;99.90
19552;DHT22;9921;47.186;9.778;2023-12-28T11:05:29;7.80;99.90
19552;DHT22;9921;47.186;9.778;2023-12-28T11:07:58;7.80;99.90
19552;DHT22;9921;47.186;9.778;2023-12-28T11:10:27;7.80;99.90
19552;DHT22;9921;47.186;9.778;2023-12-28T11:13:01;7.80;99.90
19552;DHT22;9921;47.186;9.778;2023-12-28T11:15:30;7.80;99.90
19552;DHT22;9921;47.186;9.778;2023-12-28T11:17:57;7.80;99.90
19552;DHT22;9921;47.186;9.778;2023-12-28T11:20:24;7.80;99.90
19552;DHT22;9921;47.186;9.778;2023-12-28T11:22:54;7.70;99.90
19552;DHT22;9921;47.186;9.778;2023-12-28T11:25:21;7.80;99.90
19552;DHT22;9921;47.186;9.778;2023-12-28T11:27:48;7.90;99.90
19552;DHT22;9921;47.186;9.778;2023-12-28T11:30:16;7.90;99.90
19552;DHT22;9921;47.186;9.778;2023-12-28T11:32:43;7.90;99.90
19552;DHT22;9921;47.186;9.778;2023-12-28T11:35:11;7.80;99.90
19552;DHT22;9921;47.186;9.778;2023-12-28T11:37:41;7.80;99.90
19552;DHT22;9921;47.186;9.778;2023-12-28T11:40:11;7.80;99.90
19552;DHT22;9921;47.186;9.778;2023-12-28T11:42:48;7.80;99.90
19552;DHT22;9921;47.186;9.778;2023-12-28T11:45:17;7.70;99.90
19552;DHT22;9921;47.186;9.778;2023-12-28T11:47:45;7.70;99.90
19552;DHT22;9921;47.186;9.778;2023-12-28T11:50:12;7.60;99.90
19552;DHT22;9921;47.186;9.778;2023-12-28T11:52:40;7.50;99.90
19552;DHT22;9921;47.186;9.778;2023-12-28T11:55:07;7.50;99.90
19552;DHT22;9921;47.186;9.778;2023-12-28T11:57:35;7.40;99.90
19552;DHT22;9921;47.186;9.778;2023-12-28T12:00:03;7.40;99.90
19552;DHT22;9921;47.186;9.778;2023-12-28T12:02:34;7.50;99.90
19552;DHT22;9921;47.186;9.778;2023-12-28T12:05:00;7.50;99.90
19552;DHT22;9921;47.186;9.778;2023-12-28T12:07:28;7.50;99.90
19552;DHT22;9921;47.186;9.778;2023-12-28T12:09:56;7.50;99.90
19552;DHT22;9921;47.186;9.778;2023-12-28T12:12:23;7.50;99.90
19552;DHT22;9921;47.186;9.778;2023-12-28T12:14:50;7.50;99.90
19552;DHT22;9921;47.186;9.778;2023-12-28T12:17:17;7.60;99.90
19552;DHT22;9921;47.186;9.778;2023-12-28T12:19:46;7.60;99.90
19552;DHT22;9921;47.186;9.778;2023-12-28T12:22:15;7.60;99.90
19552;DHT22;9921;47.186;9.778;2023-12-28T12:24:44;7.50;99.90
19552;DHT22;9921;47.186;9.778;2023-12-28T12:27:11;7.50;99.90
19552;DHT22;9921;47.186;9.778;2023-12-28T12:29:38;7.60;99.90
19552;DHT22;9921;47.186;9.778;2023-12-28T12:32:05;7.60;99.90
19552;DHT22;9921;47.186;9.778;2023-12-28T12:34:33;7.60;99.90
19552;DHT22;9921;47.186;9.778;2023-12-28T12:37:01;7.60;99.90
19552;DHT22;9921;47.186;9.778;2023-12-28T12:39:29;7.60;99.90
19552;DHT22;9921;47.186;9.778;2023-12-28T12:41:56;7.50;99.90
19552;DHT22;9921;47.186;9.778;2023-12-28T12:44:23;7.50;99.90
19552;DHT22;9921;47.186;9.778;2023-12-28T12:46:56;7.40;99.90
19552;DHT22;9921;47.186;9.778;2023-12-28T12:49:24;7.40;99.90
19552;DHT22;9921;47.186;9.778;2023-12-28T12:51:51;7.40;99.90
19552;DHT22;9921;47.186;9.778;2023-12-28T12:54:19;7.40;99.90
19552;DHT22;9921;47.186;9.778;2023-12-28T12:56:47;7.30;99.90
19552;DHT22;9921;47.186;9.778;2023-12-28T12:59:14;7.30;99.90
19552;DHT22;9921;47.186;9.778;2023-12-28T13:01:43;7.30;99.90
19552;DHT22;9921;47.186;9.778;2023-12-28T13:04:10;7.20;99.90
19552;DHT22;9921;47.186;9.778;2023-12-28T13:06:37;7.20;99.90
19552;DHT22;9921;47.186;9.778;2023-12-28T13:09:04;7.20;99.90
19552;DHT22;9921;47.186;9.778;2023-12-28T13:11:34;7.20;99.90
19552;DHT22;9921;47.186;9.778;2023-12-28T13:14:01;7.20;99.90
19552;DHT22;9921;47.186;9.778;2023-12-28T13:16:28;7.30;99.90
19552;DHT22;9921;47.186;9.778;2023-12-28T13:18:54;7.20;99.90
19552;DHT22;9921;47.186;9.778;2023-12-28T13:21:21;7.20;99.90
19552;DHT22;9921;47.186;9.778;2023-12-28T13:23:48;7.20;99.90
19552;DHT22;9921;47.186;9.778;2023-12-28T13:26:15;7.10;99.90
19552;DHT22;9921;47.186;9.778;2023-12-28T13:28:43;7.00;99.90
19552;DHT22;9921;47.186;9.778;2023-12-28T13:31:10;7.00;99.90
19552;DHT22;9921;47.186;9.778;2023-12-28T13:33:38;7.00;99.90
19552;DHT22;9921;47.186;9.778;2023-12-28T13:36:04;7.00;99.90
19552;DHT22;9921;47.186;9.778;2023-12-28T13:38:31;7.10;99.90
19552;DHT22;9921;47.186;9.778;2023-12-28T13:40:58;7.10;99.90
19552;DHT22;9921;47.186;9.778;2023-12-28T13:43:25;7.00;99.90
19552;DHT22;9921;47.186;9.778;2023-12-28T13:45:53;7.10;99.90
19552;DHT22;9921;47.186;9.778;2023-12-28T13:48:20;7.10;99.90
19552;DHT22;9921;47.186;9.778;2023-12-28T13:50:47;7.10;99.90
19552;DHT22;9921;47.186;9.778;2023-12-28T13:53:13;7.00;99.90
19552;DHT22;9921;47.186;9.778;2023-12-28T13:55:40;7.00;99.90
19552;DHT22;9921;47.186;9.778;2023-12-28T13:58:07;7.00;99.90
19552;DHT22;9921;47.186;9.778;2023-12-28T14:00:34;7.00;99.90
19552;DHT22;9921;47.186;9.778;2023-12-28T14:03:03;7.00;99.90
19552;DHT22;9921;47.186;9.778;2023-12-28T14:05:30;7.00;99.90
19552;DHT22;9921;47.186;9.778;2023-12-28T14:07:57;6.90;99.90
19552;DHT22;9921;47.186;9.778;2023-12-28T14:10:24;6.90;99.90
19552;DHT22;9921;47.186;9.778;2023-12-28T14:12:51;6.90;99.90
19552;DHT22;9921;47.186;9.778;2023-12-28T14:15:18;6.90;99.90
19552;DHT22;9921;47.186;9.778;2023-12-28T14:17:45;6.90;99.90
19552;DHT22;9921;47.186;9.778;2023-12-28T14:20:13;7.00;99.90
19552;DHT22;9921;47.186;9.778;2023-12-28T14:22:41;7.00;99.90
19552;DHT22;9921;47.186;9.778;2023-12-28T14:25:09;6.90;99.90
19552;DHT22;9921;47.186;9.778;2023-12-28T14:27:37;6.90;99.90
19552;DHT22;9921;47.186;9.778;2023-12-28T14:30:06;6.80;99.90
19552;DHT22;9921;47.186;9.778;2023-12-28T14:32:35;6.80;99.90
19552;DHT22;9921;47.186;9.778;2023-12-28T14:35:03;6.70;99.90
19552;DHT22;9921;47.186;9.778;2023-12-28T14:37:31;6.60;99.90
19552;DHT22;9921;47.186;9.778;2023-12-28T14:39:58;6.50;99.90
19552;DHT22;9921;47.186;9.778;2023-12-28T14:42:25;6.50;99.90
19552;DHT22;9921;47.186;9.778;2023-12-28T14:44:52;6.50;99.90
19552;DHT22;9921;47.186;9.778;2023-12-28T14:47:19;6.40;99.90
19552;DHT22;9921;47.186;9.778;2023-12-28T14:49:46;6.40;99.90
19552;DHT22;9921;47.186;9.778;2023-12-28T14:52:12;6.30;99.90
19552;DHT22;9921;47.186;9.778;2023-12-28T14:54:41;6.30;99.90
19552;DHT22;9921;47.186;9.778;2023-12-28T14:57:08;6.30;99.90
19552;DHT22;9921;47.186;9.778;2023-12-28T14:59:37;6.30;99.90
19552;DHT22;9921;47.186;9.778;2023-12-28T15:02:04;6.20;99.90
19552;DHT22;9921;47.186;9.778;2023-12-28T15:04:31;6.30;99.90
19552;DHT22;9921;47.186;9.778;2023-12-28T15:06:59;6.30;99.90
19552;DHT22;9921;47.186;9.778;2023-12-28T15:09:26;6.20;99.90
19552;DHT22;9921;47.186;9.778;2023-12-28T15:11:54;6.20;99.90
19552;DHT22;9921;47.186;9.778;2023-12-28T15:14:22;6.20;99.90
19552;DHT22;9921;47.186;9.778;2023-12-28T15:16:49;6.10;99.90
19552;DHT22;9921;47.186;9.778;2023-12-28T15:19:17;6.20;99.90
19552;DHT22;9921;47.186;9.778;2023-12-28T15:21:44;6.10;99.90
19552;DHT22;9921;47.186;9.778;2023-12-28T15:24:12;6.20;99.90
19552;DHT22;9921;47.186;9.778;2023-12-28T15:26:39;6.10;99.90
19552;DHT22;9921;47.186;9.778;2023-12-28T15:29:07;6.10;99.90
19552;DHT22;9921;47.186;9.778;2023-12-28T15:31:34;6.10;99.90
19552;DHT22;9921;47.186;9.778;2023-12-28T15:34:01;6.10;99.90
19552;DHT22;9921;47.186;9.778;2023-12-28T15:36:28;6.10;99.90
19552;DHT22;9921;47.186;9.778;2023-12-28T15:38:55;6.00;99.90
19552;DHT22;9921;47.186;9.778;2023-12-28T15:41:22;6.00;99.90
19552;DHT22;9921;47.186;9.778;2023-12-28T15:43:48;6.00;99.90
19552;DHT22;9921;47.186;9.778;2023-12-28T15:46:17;6.00;99.90
19552;DHT22;9921;47.186;9.778;2023-12-28T15:48:44;6.00;99.90
19552;DHT22;9921;47.186;9.778;2023-12-28T15:51:11;6.00;99.90
19552;DHT22;9921;47.186;9.778;2023-12-28T15:53:37;5.90;99.90
19552;DHT22;9921;47.186;9.778;2023-12-28T15:56:06;5.90;99.90
19552;DHT22;9921;47.186;9.778;2023-12-28T15:58:33;5.90;99.90
19552;DHT22;9921;47.186;9.778;2023-12-28T16:00:59;6.00;99.90